sensor_id;sensor_type;location;lat;lon;timestamp;temperature;humidity
9544;DHT22;30418;51.45933468;7.33152330;2024-01-07T00:02:08;5.90;72.30
9544;DHT22;30418;51.45933468;7.33152330;2024-01-07T00:04:36;5.90;72.40
9544;DHT22;30418;51.45933468;7.33152330;2024-01-07T00:07:05;5.90;72.30
9544;DHT22;30418;51.45933468;7.33152330;2024-01-07T00:09:34;5.90;72.20
9544;DHT22;30418;51.45933468;7.33152330;2024-01-07T00:12:02;5.90;72.20
9544;DHT22;30418;51.45933468;7.33152330;2024-01-07T00:14:31;5.90;72.20
9544;DHT22;30418;51.45933468;7.33152330;2024-01-07T00:17:01;5.90;72.30
9544;DHT22;30418;51.45933468;7.33152330;2024-01-07T00:19:30;5.90;72.20
9544;DHT22;30418;51.45933468;7.33152330;2024-01-07T00:21:59;5.90;72.30
9544;DHT22;30418;51.45933468;7.33152330;2024-01-07T00:24:27;5.90;72.20
9544;DHT22;30418;51.45933468;7.33152330;2024-01-07T00:26:56;5.90;72.20
9544;DHT22;30418;51.45933468;7.33152330;2024-01-07T00:29:24;5.90;72.20
9544;DHT22;30418;51.45933468;7.33152330;2024-01-07T00:31:53;5.90;72.20
9544;DHT22;30418;51.45933468;7.33152330;2024-01-07T00:34:23;5.90;72.20
9544;DHT22;30418;51.45933468;7.33152330;2024-01-07T00:36:52;5.90;72.20
9544;DHT22;30418;51.45933468;7.33152330;2024-01-07T00:39:21;5.90;72.20
9544;DHT22;30418;51.45933468;7.33152330;2024-01-07T00:41:50;5.90;72.20
9544;DHT22;30418;51.45933468;7.33152330;2024-01-07T00:44:18;5.90;72.20
9544;DHT22;30418;51.45933468;7.33152330;2024-01-07T00:46:47;5.90;72.20
9544;DHT22;30418;51.45933468;7.33152330;2024-01-07T00:49:15;5.90;72.40
9544;DHT22;30418;51.45933468;7.33152330;2024-01-07T00:51:45;5.90;72.40
9544;DHT22;30418;51.45933468;7.33152330;2024-01-07T00:54:14;5.80;72.20
9544;DHT22;30418;51.45933468;7.33152330;2024-01-07T00:56:42;5.90;72.30
9544;DHT22;30418;51.45933468;7.33152330;2024-01-07T00:59:11;5.90;72.20
9544;DHT22;30418;51.45933468;7.33152330;2024-01-07T01:01:39;5.90;72.20
9544;DHT22;30418;51.45933468;7.33152330;2024-01-07T01:04:08;5.90;72.30
9544;DHT22;30418;51.45933468;7.33152330;2024-01-07T01:06:37;5.90;72.30
9544;DHT22;30418;51.45933468;7.33152330;2024-01-07T01:09:07;5.80;72.10
9544;DHT22;30418;51.45933468;7.33152330;2024-01-07T01:11:35;5.90;73.10
9544;DHT22;30418;51.45933468;7.33152330;2024-01-07T01:14:04;5.80;72.10
9544;DHT22;30418;51.45933468;7.33152330;2024-01-07T01:16:32;5.80;72.00
9544;DHT22;30418;51.45933468;7.33152330;2024-01-07T01:19:01;5.80;72.10
9544;DHT22;30418;51.45933468;7.33152330;2024-01-07T01:21:31;5.80;72.10
9544;DHT22;30418;51.45933468;7.33152330;2024-01-07T01:24:00;5.80;72.20
9544;DHT22;30418;51.45933468;7.33152330;2024-01-07T01:26:33;5.80;72.20
9544;DHT22;30418;51.45933468;7.33152330;2024-01-07T01:29:01;5.80;72.30
9544;DHT22;30418;51.45933468;7.33152330;2024-01-07T01:31:30;5.80;72.30
9544;DHT22;30418;51.45933468;7.33152330;2024-01-07T01:33:58;5.80;72.40
9544;DHT22;30418;51.45933468;7.33152330;2024-01-07T01:36:27;5.80;72.20
9544;DHT22;30418;51.45933468;7.33152330;2024-01-07T01:38:56;5.80;72.10
9544;DHT22;30418;51.45933468;7.33152330;2024-01-07T01:41:24;5.80;72.00
9544;DHT22;30418;51.45933468;7.33152330;2024-01-07T01:43:58;5.80;72.10
9544;DHT22;30418;51.45933468;7.33152330;2024-01-07T01:46:28;5.80;72.10
9544;DHT22;30418;51.45933468;7.33152330;2024-01-07T01:48:58;5.80;72.10
9544;DHT22;30418;51.45933468;7.33152330;2024-01-07T01:51:27;5.80;72.10
9544;DHT22;30418;51.45933468;7.33152330;2024-01-07T01:53:56;5.80;72.10
9544;DHT22;30418;51.45933468;7.33152330;2024-01-07T01:56:27;5.80;71.90
9544;DHT22;30418;51.45933468;7.33152330;2024-01-07T01:58:57;5.80;71.80
9544;DHT22;30418;51.45933468;7.33152330;2024-01-07T02:01:26;5.80;71.80
9544;DHT22;30418;51.45933468;7.33152330;2024-01-07T02:03:55;5.90;72.00
9544;DHT22;30418;51.45933468;7.33152330;2024-01-07T02:06:24;5.80;71.80
9544;DHT22;30418;51.45933468;7.33152330;2024-01-07T02:08:55;5.80;71.70
9544;DHT22;30418;51.45933468;7.33152330;2024-01-07T02:11:23;5.80;71.70
9544;DHT22;30418;51.45933468;7.33152330;2024-01-07T02:13:52;5.80;71.70
9544;DHT22;30418;51.45933468;7.33152330;2024-01-07T02:16:21;5.80;71.70
9544;DHT22;30418;51.45933468;7.33152330;2024-01-07T02:18:50;5.80;71.80
9544;DHT22;30418;51.45933468;7.33152330;2024-01-07T02:21:18;5.80;71.70
9544;DHT22;30418;51.45933468;7.33152330;2024-01-07T02:23:47;5.80;71.50
9544;DHT22;30418;51.45933468;7.33152330;2024-01-07T02:26:17;5.80;71.50
9544;DHT22;30418;51.45933468;7.33152330;2024-01-07T02:28:45;5.70;71.40
9544;DHT22;30418;51.45933468;7.33152330;2024-01-07T02:31:14;5.70;71.30
9544;DHT22;30418;51.45933468;7.33152330;2024-01-07T02:33:43;5.70;71.40
9544;DHT22;30418;51.45933468;7.33152330;2024-01-07T02:36:11;5.70;71.30
9544;DHT22;30418;51.45933468;7.33152330;2024-01-07T02:38:40;5.70;71.40
9544;DHT22;30418;51.45933468;7.33152330;2024-01-07T02:41:08;5.70;71.60
9544;DHT22;30418;51.45933468;7.33152330;2024-01-07T02:43:38;5.70;71.60
9544;DHT22;30418;51.45933468;7.33152330;2024-01-07T02:46:08;5.60;71.30
9544;DHT22;30418;51.45933468;7.33152330;2024-01-07T02:48:37;5.70;71.20
9544;DHT22;30418;51.45933468;7.33152330;2024-01-07T02:51:07;5.60;71.00
9544;DHT22;30418;51.45933468;7.33152330;2024-01-07T02:53:36;5.60;71.00
9544;DHT22;30418;51.45933468;7.33152330;2024-01-07T02:56:05;5.60;71.10
9544;DHT22;30418;51.45933468;7.33152330;2024-01-07T02:58:35;5.60;71.10
9544;DHT22;30418;51.45933468;7.33152330;2024-01-07T03:01:08;5.60;71.20
9544;DHT22;30418;51.45933468;7.33152330;2024-01-07T03:03:37;5.60;71.10
9544;DHT22;30418;51.45933468;7.33152330;2024-01-07T03:06:06;5.60;71.20
9544;DHT22;30418;51.45933468;7.33152330;2024-01-07T03:08:35;5.50;70.90
9544;DHT22;30418;51.45933468;7.33152330;2024-01-07T03:11:06;5.60;70.90
9544;DHT22;30418;51.45933468;7.33152330;2024-01-07T03:13:35;5.50;70.80
9544;DHT22;30418;51.45933468;7.33152330;2024-01-07T03:16:06;5.50;70.80
9544;DHT22;30418;51.45933468;7.33152330;2024-01-07T03:18:34;5.50;70.80
9544;DHT22;30418;51.45933468;7.33152330;2024-01-07T03:21:03;5.50;70.80
9544;DHT22;30418;51.45933468;7.33152330;2024-01-07T03:23:32;5.40;70.70
9544;DHT22;30418;51.45933468;7.33152330;2024-01-07T03:26:00;5.50;70.80
9544;DHT22;30418;51.45933468;7.33152330;2024-01-07T03:28:29;5.40;70.70
9544;DHT22;30418;51.45933468;7.33152330;2024-01-07T03:30:57;5.40;70.70
9544;DHT22;30418;51.45933468;7.33152330;2024-01-07T03:33:28;5.40;70.70
9544;DHT22;30418;51.45933468;7.33152330;2024-01-07T03:35:57;5.40;70.80
9544;DHT22;30418;51.45933468;7.33152330;2024-01-07T03:38:25;5.40;70.70
9544;DHT22;30418;51.45933468;7.33152330;2024-01-07T03:40:53;5.40;70.60
9544;DHT22;30418;51.45933468;7.33152330;2024-01-07T03:43:22;5.40;70.60
9544;DHT22;30418;51.45933468;7.33152330;2024-01-07T03:45:50;5.30;70.50
9544;DHT22;30418;51.45933468;7.33152330;2024-01-07T03:48:19;5.30;70.40
9544;DHT22;30418;51.45933468;7.33152330;2024-01-07T03:50:49;5.30;70.40
9544;DHT22;30418;51.45933468;7.33152330;2024-01-07T03:53:18;5.30;70.50
9544;DHT22;30418;51.45933468;7.33152330;2024-01-07T03:55:46;5.30;70.50
9544;DHT22;30418;51.45933468;7.33152330;2024-01-07T03:58:15;5.20;70.50
9544;DHT22;30418;51.45933468;7.33152330;2024-01-07T04:00:43;5.20;70.50
9544;DHT22;30418;51.45933468;7.33152330;2024-01-07T04:03:12;5.20;70.50
9544;DHT22;30418;51.45933468;7.33152330;2024-01-07T04:05:41;5.20;70.50
9544;DHT22;30418;51.45933468;7.33152330;2024-01-07T04:08:11;5.20;70.50
9544;DHT22;30418;51.45933468;7.33152330;2024-01-07T04:10:39;5.20;70.60
9544;DHT22;30418;51.45933468;7.33152330;2024-01-07T04:13:08;5.20;70.70
9544;DHT22;30418;51.45933468;7.33152330;2024-01-07T04:15:36;5.20;70.70
9544;DHT22;30418;51.45933468;7.33152330;2024-01-07T04:18:05;5.20;70.50
9544;DHT22;30418;51.45933468;7.33152330;2024-01-07T04:20:34;5.30;70.60
9544;DHT22;30418;51.45933468;7.33152330;2024-01-07T04:23:03;5.20;70.40
9544;DHT22;30418;51.45933468;7.33152330;2024-01-07T04:25:33;5.20;70.30
9544;DHT22;30418;51.45933468;7.33152330;2024-01-07T04:28:02;5.20;70.30
9544;DHT22;30418;51.45933468;7.33152330;2024-01-07T04:30:30;5.20;70.30
9544;DHT22;30418;51.45933468;7.33152330;2024-01-07T04:32:59;5.10;70.10
9544;DHT22;30418;51.45933468;7.33152330;2024-01-07T04:35:28;5.10;70.20
9544;DHT22;30418;51.45933468;7.33152330;2024-01-07T04:37:56;5.10;70.30
9544;DHT22;30418;51.45933468;7.33152330;2024-01-07T04:40:25;5.10;70.40
9544;DHT22;30418;51.45933468;7.33152330;2024-01-07T04:42:54;5.00;70.30
9544;DHT22;30418;51.45933468;7.33152330;2024-01-07T04:45:23;5.00;70.30
9544;DHT22;30418;51.45933468;7.33152330;2024-01-07T04:47:52;5.00;70.30
9544;DHT22;30418;51.45933468;7.33152330;2024-01-07T04:50:20;5.00;70.30
9544;DHT22;30418;51.45933468;7.33152330;2024-01-07T04:52:50;5.00;70.30
9544;DHT22;30418;51.45933468;7.33152330;2024-01-07T04:55:18;5.00;70.50
9544;DHT22;30418;51.45933468;7.33152330;2024-01-07T04:57:46;5.00;70.60
9544;DHT22;30418;51.45933468;7.33152330;2024-01-07T05:00:17;5.00;70.50
9544;DHT22;30418;51.45933468;7.33152330;2024-01-07T05:02:46;5.10;70.50
9544;DHT22;30418;51.45933468;7.33152330;2024-01-07T05:05:14;5.10;70.40
9544;DHT22;30418;51.45933468;7.33152330;2024-01-07T05:07:42;5.10;70.40
9544;DHT22;30418;51.45933468;7.33152330;2024-01-07T05:10:11;5.00;70.20
9544;DHT22;30418;51.45933468;7.33152330;2024-01-07T05:12:40;5.10;70.40
9544;DHT22;30418;51.45933468;7.33152330;2024-01-07T05:15:08;5.10;70.40
9544;DHT22;30418;51.45933468;7.33152330;2024-01-07T05:17:38;5.00;70.20
9544;DHT22;30418;51.45933468;7.33152330;2024-01-07T05:20:08;5.00;70.20
9544;DHT22;30418;51.45933468;7.33152330;2024-01-07T05:22:37;5.00;70.30
9544;DHT22;30418;51.45933468;7.33152330;2024-01-07T05:25:06;5.00;70.10
9544;DHT22;30418;51.45933468;7.33152330;2024-01-07T05:27:36;5.00;70.20
9544;DHT22;30418;51.45933468;7.33152330;2024-01-07T05:30:06;5.00;70.40
9544;DHT22;30418;51.45933468;7.33152330;2024-01-07T05:32:35;5.00;70.20
9544;DHT22;30418;51.45933468;7.33152330;2024-01-07T05:35:06;5.00;70.20
9544;DHT22;30418;51.45933468;7.33152330;2024-01-07T05:37:35;5.00;70.30
9544;DHT22;30418;51.45933468;7.33152330;2024-01-07T05:40:04;5.00;70.30
9544;DHT22;30418;51.45933468;7.33152330;2024-01-07T05:42:34;5.00;70.30
9544;DHT22;30418;51.45933468;7.33152330;2024-01-07T05:45:03;5.00;70.30
9544;DHT22;30418;51.45933468;7.33152330;2024-01-07T05:47:32;5.00;70.30
9544;DHT22;30418;51.45933468;7.33152330;2024-01-07T05:50:00;5.00;70.30
9544;DHT22;30418;51.45933468;7.33152330;2024-01-07T05:52:30;5.00;70.30
9544;DHT22;30418;51.45933468;7.33152330;2024-01-07T05:54:59;5.00;70.20
9544;DHT22;30418;51.45933468;7.33152330;2024-01-07T05:57:28;5.10;70.30
9544;DHT22;30418;51.45933468;7.33152330;2024-01-07T05:59:56;5.00;70.00
9544;DHT22;30418;51.45933468;7.33152330;2024-01-07T06:02:25;5.00;70.00
9544;DHT22;30418;51.45933468;7.33152330;2024-01-07T06:04:54;5.00;69.90
9544;DHT22;30418;51.45933468;7.33152330;2024-01-07T06:07:22;5.00;69.90
9544;DHT22;30418;51.45933468;7.33152330;2024-01-07T06:09:52;5.00;69.90
9544;DHT22;30418;51.45933468;7.33152330;2024-01-07T06:12:22;4.90;69.90
9544;DHT22;30418;51.45933468;7.33152330;2024-01-07T06:14:50;4.90;69.90
9544;DHT22;30418;51.45933468;7.33152330;2024-01-07T06:17:19;4.90;69.70
9544;DHT22;30418;51.45933468;7.33152330;2024-01-07T06:19:47;4.90;69.70
9544;DHT22;30418;51.45933468;7.33152330;2024-01-07T06:22:16;4.90;69.90
9544;DHT22;30418;51.45933468;7.33152330;2024-01-07T06:24:44;4.80;69.90
9544;DHT22;30418;51.45933468;7.33152330;2024-01-07T06:27:14;4.80;69.90
9544;DHT22;30418;51.45933468;7.33152330;2024-01-07T06:29:43;4.80;70.00
9544;DHT22;30418;51.45933468;7.33152330;2024-01-07T06:32:13;4.80;70.10
9544;DHT22;30418;51.45933468;7.33152330;2024-01-07T06:34:41;4.80;70.10
9544;DHT22;30418;51.45933468;7.33152330;2024-01-07T06:37:10;4.80;70.10
9544;DHT22;30418;51.45933468;7.33152330;2024-01-07T06:39:39;4.80;70.00
9544;DHT22;30418;51.45933468;7.33152330;2024-01-07T06:42:07;4.90;70.10
9544;DHT22;30418;51.45933468;7.33152330;2024-01-07T06:44:37;4.80;70.00
9544;DHT22;30418;51.45933468;7.33152330;2024-01-07T06:47:06;4.80;69.90
9544;DHT22;30418;51.45933468;7.33152330;2024-01-07T06:49:36;4.80;70.70
9544;DHT22;30418;51.45933468;7.33152330;2024-01-07T06:52:06;4.80;69.90
9544;DHT22;30418;51.45933468;7.33152330;2024-01-07T06:54:34;4.80;70.00
9544;DHT22;30418;51.45933468;7.33152330;2024-01-07T06:57:03;4.80;69.90
9544;DHT22;30418;51.45933468;7.33152330;2024-01-07T06:59:32;4.80;70.00
9544;DHT22;30418;51.45933468;7.33152330;2024-01-07T07:02:03;4.80;70.00
9544;DHT22;30418;51.45933468;7.33152330;2024-01-07T07:04:31;4.70;69.90
9544;DHT22;30418;51.45933468;7.33152330;2024-01-07T07:07:00;4.70;69.90
9544;DHT22;30418;51.45933468;7.33152330;2024-01-07T07:09:28;4.70;69.90
9544;DHT22;30418;51.45933468;7.33152330;2024-01-07T07:11:57;4.70;69.90
9544;DHT22;30418;51.45933468;7.33152330;2024-01-07T07:14:25;4.70;69.90
9544;DHT22;30418;51.45933468;7.33152330;2024-01-07T07:16:54;4.70;69.90
9544;DHT22;30418;51.45933468;7.33152330;2024-01-07T07:19:24;4.70;69.80
9544;DHT22;30418;51.45933468;7.33152330;2024-01-07T07:21:53;4.70;69.80
9544;DHT22;30418;51.45933468;7.33152330;2024-01-07T07:24:21;4.70;69.70
9544;DHT22;30418;51.45933468;7.33152330;2024-01-07T07:26:50;4.70;69.60
9544;DHT22;30418;51.45933468;7.33152330;2024-01-07T07:29:19;4.70;69.70
9544;DHT22;30418;51.45933468;7.33152330;2024-01-07T07:31:47;4.60;69.50
9544;DHT22;30418;51.45933468;7.33152330;2024-01-07T07:34:16;4.60;69.70
9544;DHT22;30418;51.45933468;7.33152330;2024-01-07T07:36:46;4.70;69.50
9544;DHT22;30418;51.45933468;7.33152330;2024-01-07T07:39:15;4.60;69.30
9544;DHT22;30418;51.45933468;7.33152330;2024-01-07T07:41:43;4.60;69.20
9544;DHT22;30418;51.45933468;7.33152330;2024-01-07T07:44:12;4.60;69.30
9544;DHT22;30418;51.45933468;7.33152330;2024-01-07T07:46:41;4.60;69.30
9544;DHT22;30418;51.45933468;7.33152330;2024-01-07T07:49:09;4.60;70.20
9544;DHT22;30418;51.45933468;7.33152330;2024-01-07T07:51:38;4.60;69.40
9544;DHT22;30418;51.45933468;7.33152330;2024-01-07T07:54:09;4.60;69.30
9544;DHT22;30418;51.45933468;7.33152330;2024-01-07T07:56:37;4.60;69.00
9544;DHT22;30418;51.45933468;7.33152330;2024-01-07T07:59:06;4.60;68.90
9544;DHT22;30418;51.45933468;7.33152330;2024-01-07T08:01:35;4.50;69.10
9544;DHT22;30418;51.45933468;7.33152330;2024-01-07T08:04:04;4.50;68.90
9544;DHT22;30418;51.45933468;7.33152330;2024-01-07T08:06:33;4.40;69.00
9544;DHT22;30418;51.45933468;7.33152330;2024-01-07T08:09:01;4.40;69.30
9544;DHT22;30418;51.45933468;7.33152330;2024-01-07T08:11:31;4.40;69.30
9544;DHT22;30418;51.45933468;7.33152330;2024-01-07T08:14:02;4.40;69.40
9544;DHT22;30418;51.45933468;7.33152330;2024-01-07T08:16:33;4.40;69.60
9544;DHT22;30418;51.45933468;7.33152330;2024-01-07T08:19:01;4.40;69.60
9544;DHT22;30418;51.45933468;7.33152330;2024-01-07T08:21:30;4.40;69.60
9544;DHT22;30418;51.45933468;7.33152330;2024-01-07T08:23:58;4.50;69.70
9544;DHT22;30418;51.45933468;7.33152330;2024-01-07T08:26:27;4.40;69.60
9544;DHT22;30418;51.45933468;7.33152330;2024-01-07T08:28:57;4.50;69.70
9544;DHT22;30418;51.45933468;7.33152330;2024-01-07T08:31:25;4.40;69.60
9544;DHT22;30418;51.45933468;7.33152330;2024-01-07T08:33:54;4.50;69.70
9544;DHT22;30418;51.45933468;7.33152330;2024-01-07T08:36:23;4.40;69.40
9544;DHT22;30418;51.45933468;7.33152330;2024-01-07T08:38:51;4.40;69.40
9544;DHT22;30418;51.45933468;7.33152330;2024-01-07T08:41:20;4.40;69.40
9544;DHT22;30418;51.45933468;7.33152330;2024-01-07T08:43:48;4.40;69.40
9544;DHT22;30418;51.45933468;7.33152330;2024-01-07T08:46:20;4.40;69.50
9544;DHT22;30418;51.45933468;7.33152330;2024-01-07T08:48:49;4.40;69.30
9544;DHT22;30418;51.45933468;7.33152330;2024-01-07T08:51:18;4.40;69.40
9544;DHT22;30418;51.45933468;7.33152330;2024-01-07T08:53:47;4.40;69.50
9544;DHT22;30418;51.45933468;7.33152330;2024-01-07T08:56:15;4.40;69.60
9544;DHT22;30418;51.45933468;7.33152330;2024-01-07T08:58:44;4.40;69.50
9544;DHT22;30418;51.45933468;7.33152330;2024-01-07T09:01:12;4.40;69.30
9544;DHT22;30418;51.45933468;7.33152330;2024-01-07T09:03:43;4.40;69.30
9544;DHT22;30418;51.45933468;7.33152330;2024-01-07T09:06:12;4.40;69.40
9544;DHT22;30418;51.45933468;7.33152330;2024-01-07T09:08:40;4.50;69.40
9544;DHT22;30418;51.45933468;7.33152330;2024-01-07T09:11:09;4.50;68.90
9544;DHT22;30418;51.45933468;7.33152330;2024-01-07T09:13:40;4.40;68.80
9544;DHT22;30418;51.45933468;7.33152330;2024-01-07T09:16:10;4.50;68.90
9544;DHT22;30418;51.45933468;7.33152330;2024-01-07T09:18:39;4.40;69.00
9544;DHT22;30418;51.45933468;7.33152330;2024-01-07T09:21:10;4.50;69.20
9544;DHT22;30418;51.45933468;7.33152330;2024-01-07T09:23:38;4.50;69.30
9544;DHT22;30418;51.45933468;7.33152330;2024-01-07T09:26:07;4.50;69.30
9544;DHT22;30418;51.45933468;7.33152330;2024-01-07T09:28:36;4.50;69.10
9544;DHT22;30418;51.45933468;7.33152330;2024-01-07T09:31:04;4.50;69.00
9544;DHT22;30418;51.45933468;7.33152330;2024-01-07T09:33:33;4.50;69.00
9544;DHT22;30418;51.45933468;7.33152330;2024-01-07T09:36:02;4.50;68.90
9544;DHT22;30418;51.45933468;7.33152330;2024-01-07T09:38:48;4.60;69.00
9544;DHT22;30418;51.45933468;7.33152330;2024-01-07T09:41:16;4.60;69.00
9544;DHT22;30418;51.45933468;7.33152330;2024-01-07T09:43:45;4.60;68.90
9544;DHT22;30418;51.45933468;7.33152330;2024-01-07T09:46:13;4.50;68.70
9544;DHT22;30418;51.45933468;7.33152330;2024-01-07T09:48:42;4.60;68.70
9544;DHT22;30418;51.45933468;7.33152330;2024-01-07T09:51:11;4.60;68.70
9544;DHT22;30418;51.45933468;7.33152330;2024-01-07T09:53:40;4.60;68.70
9544;DHT22;30418;51.45933468;7.33152330;2024-01-07T09:56:14;4.50;68.60
9544;DHT22;30418;51.45933468;7.33152330;2024-01-07T09:58:46;4.50;68.50
9544;DHT22;30418;51.45933468;7.33152330;2024-01-07T10:01:17;4.50;68.30
9544;DHT22;30418;51.45933468;7.33152330;2024-01-07T10:03:46;4.50;68.40
9544;DHT22;30418;51.45933468;7.33152330;2024-01-07T10:06:18;4.50;68.20
9544;DHT22;30418;51.45933468;7.33152330;2024-01-07T10:08:47;4.50;67.90
9544;DHT22;30418;51.45933468;7.33152330;2024-01-07T10:11:17;4.50;67.80
9544;DHT22;30418;51.45933468;7.33152330;2024-01-07T10:13:45;4.50;67.90
9544;DHT22;30418;51.45933468;7.33152330;2024-01-07T10:16:15;4.40;67.80
9544;DHT22;30418;51.45933468;7.33152330;2024-01-07T10:18:43;4.40;67.90
9544;DHT22;30418;51.45933468;7.33152330;2024-01-07T10:21:12;4.40;67.60
9544;DHT22;30418;51.45933468;7.33152330;2024-01-07T10:23:41;4.40;67.30
9544;DHT22;30418;51.45933468;7.33152330;2024-01-07T10:26:10;4.40;67.50
9544;DHT22;30418;51.45933468;7.33152330;2024-01-07T10:28:54;4.40;67.50
9544;DHT22;30418;51.45933468;7.33152330;2024-01-07T10:31:24;4.40;67.40
9544;DHT22;30418;51.45933468;7.33152330;2024-01-07T10:33:53;4.40;67.40
9544;DHT22;30418;51.45933468;7.33152330;2024-01-07T10:36:22;4.40;67.00
9544;DHT22;30418;51.45933468;7.33152330;2024-01-07T10:38:51;4.30;67.10
9544;DHT22;30418;51.45933468;7.33152330;2024-01-07T10:41:20;4.40;67.40
9544;DHT22;30418;51.45933468;7.33152330;2024-01-07T10:43:49;4.40;67.50
9544;DHT22;30418;51.45933468;7.33152330;2024-01-07T10:46:20;4.40;67.70
9544;DHT22;30418;51.45933468;7.33152330;2024-01-07T10:48:53;4.40;67.80
9544;DHT22;30418;51.45933468;7.33152330;2024-01-07T10:51:23;4.40;67.70
9544;DHT22;30418;51.45933468;7.33152330;2024-01-07T10:53:53;4.50;67.80
9544;DHT22;30418;51.45933468;7.33152330;2024-01-07T10:56:23;4.50;67.50
9544;DHT22;30418;51.45933468;7.33152330;2024-01-07T10:58:53;4.50;67.40
9544;DHT22;30418;51.45933468;7.33152330;2024-01-07T11:01:24;4.50;67.00
9544;DHT22;30418;51.45933468;7.33152330;2024-01-07T11:03:59;4.50;67.00
9544;DHT22;30418;51.45933468;7.33152330;2024-01-07T11:06:38;4.50;66.80
9544;DHT22;30418;51.45933468;7.33152330;2024-01-07T11:09:17;4.50;66.70
9544;DHT22;30418;51.45933468;7.33152330;2024-01-07T11:11:48;4.50;66.50
9544;DHT22;30418;51.45933468;7.33152330;2024-01-07T11:14:36;4.50;66.50
9544;DHT22;30418;51.45933468;7.33152330;2024-01-07T11:17:08;4.50;66.30
9544;DHT22;30418;51.45933468;7.33152330;2024-01-07T11:19:37;4.50;66.20
9544;DHT22;30418;51.45933468;7.33152330;2024-01-07T11:22:22;4.50;66.20
9544;DHT22;30418;51.45933468;7.33152330;2024-01-07T11:24:52;4.50;66.30
9544;DHT22;30418;51.45933468;7.33152330;2024-01-07T11:27:24;4.50;66.20
9544;DHT22;30418;51.45933468;7.33152330;2024-01-07T11:29:54;4.50;66.00
9544;DHT22;30418;51.45933468;7.33152330;2024-01-07T11:32:28;4.50;66.10
9544;DHT22;30418;51.45933468;7.33152330;2024-01-07T11:34:58;4.50;65.70
9544;DHT22;30418;51.45933468;7.33152330;2024-01-07T11:37:27;4.50;65.80
9544;DHT22;30418;51.45933468;7.33152330;2024-01-07T11:39:56;4.50;65.40
9544;DHT22;30418;51.45933468;7.33152330;2024-01-07T11:42:25;4.40;64.70
9544;DHT22;30418;51.45933468;7.33152330;2024-01-07T11:44:54;4.40;64.50
9544;DHT22;30418;51.45933468;7.33152330;2024-01-07T11:47:25;4.40;64.60
9544;DHT22;30418;51.45933468;7.33152330;2024-01-07T11:49:55;4.30;64.40
9544;DHT22;30418;51.45933468;7.33152330;2024-01-07T11:52:23;4.30;63.90
9544;DHT22;30418;51.45933468;7.33152330;2024-01-07T11:54:52;4.30;64.30
9544;DHT22;30418;51.45933468;7.33152330;2024-01-07T11:57:21;4.30;64.10
9544;DHT22;30418;51.45933468;7.33152330;2024-01-07T11:59:50;4.20;64.10
9544;DHT22;30418;51.45933468;7.33152330;2024-01-07T12:02:19;4.20;63.70
9544;DHT22;30418;51.45933468;7.33152330;2024-01-07T12:04:49;4.20;63.80
9544;DHT22;30418;51.45933468;7.33152330;2024-01-07T12:07:18;4.20;63.30
9544;DHT22;30418;51.45933468;7.33152330;2024-01-07T12:09:46;4.10;63.20
9544;DHT22;30418;51.45933468;7.33152330;2024-01-07T12:12:23;4.10;63.60
9544;DHT22;30418;51.45933468;7.33152330;2024-01-07T12:14:52;4.10;63.70
9544;DHT22;30418;51.45933468;7.33152330;2024-01-07T12:17:21;4.10;63.90
9544;DHT22;30418;51.45933468;7.33152330;2024-01-07T12:19:51;4.00;63.80
9544;DHT22;30418;51.45933468;7.33152330;2024-01-07T12:22:20;4.00;63.20
9544;DHT22;30418;51.45933468;7.33152330;2024-01-07T12:25:00;4.00;63.20
9544;DHT22;30418;51.45933468;7.33152330;2024-01-07T12:27:29;4.00;63.50
9544;DHT22;30418;51.45933468;7.33152330;2024-01-07T12:29:58;4.00;63.60
9544;DHT22;30418;51.45933468;7.33152330;2024-01-07T12:32:27;4.00;63.50
9544;DHT22;30418;51.45933468;7.33152330;2024-01-07T12:34:58;4.00;63.70
9544;DHT22;30418;51.45933468;7.33152330;2024-01-07T12:37:28;4.00;63.50
9544;DHT22;30418;51.45933468;7.33152330;2024-01-07T12:39:56;4.00;63.60
9544;DHT22;30418;51.45933468;7.33152330;2024-01-07T12:42:25;4.00;63.30
9544;DHT22;30418;51.45933468;7.33152330;2024-01-07T12:44:53;4.00;63.30
9544;DHT22;30418;51.45933468;7.33152330;2024-01-07T12:47:22;4.00;63.10
9544;DHT22;30418;51.45933468;7.33152330;2024-01-07T12:49:50;4.00;63.00
9544;DHT22;30418;51.45933468;7.33152330;2024-01-07T12:52:20;3.90;63.00
9544;DHT22;30418;51.45933468;7.33152330;2024-01-07T12:54:49;3.90;63.00
9544;DHT22;30418;51.45933468;7.33152330;2024-01-07T12:57:18;4.00;62.80
9544;DHT22;30418;51.45933468;7.33152330;2024-01-07T12:59:50;3.90;62.80
9544;DHT22;30418;51.45933468;7.33152330;2024-01-07T13:02:18;3.90;63.00
9544;DHT22;30418;51.45933468;7.33152330;2024-01-07T13:04:47;3.90;63.10
9544;DHT22;30418;51.45933468;7.33152330;2024-01-07T13:07:15;3.90;63.20
9544;DHT22;30418;51.45933468;7.33152330;2024-01-07T13:09:45;4.00;63.10
9544;DHT22;30418;51.45933468;7.33152330;2024-01-07T13:12:14;4.00;63.10
9544;DHT22;30418;51.45933468;7.33152330;2024-01-07T13:14:43;4.00;63.10
9544;DHT22;30418;51.45933468;7.33152330;2024-01-07T13:17:14;4.00;62.90
9544;DHT22;30418;51.45933468;7.33152330;2024-01-07T13:19:43;4.00;62.50
9544;DHT22;30418;51.45933468;7.33152330;2024-01-07T13:22:11;4.00;62.50
9544;DHT22;30418;51.45933468;7.33152330;2024-01-07T13:24:41;4.00;62.70
9544;DHT22;30418;51.45933468;7.33152330;2024-01-07T13:27:12;4.00;62.70
9544;DHT22;30418;51.45933468;7.33152330;2024-01-07T13:29:40;4.00;62.40
9544;DHT22;30418;51.45933468;7.33152330;2024-01-07T13:32:08;4.00;62.50
9544;DHT22;30418;51.45933468;7.33152330;2024-01-07T13:34:37;4.00;62.50
9544;DHT22;30418;51.45933468;7.33152330;2024-01-07T13:37:06;4.00;62.40
9544;DHT22;30418;51.45933468;7.33152330;2024-01-07T13:39:35;4.00;62.50
9544;DHT22;30418;51.45933468;7.33152330;2024-01-07T13:42:04;4.00;62.70
9544;DHT22;30418;51.45933468;7.33152330;2024-01-07T13:44:34;4.10;62.50
9544;DHT22;30418;51.45933468;7.33152330;2024-01-07T13:47:03;4.10;62.40
9544;DHT22;30418;51.45933468;7.33152330;2024-01-07T13:49:32;4.10;62.20
9544;DHT22;30418;51.45933468;7.33152330;2024-01-07T13:52:01;4.10;62.20
9544;DHT22;30418;51.45933468;7.33152330;2024-01-07T13:54:30;4.10;62.10
9544;DHT22;30418;51.45933468;7.33152330;2024-01-07T13:56:59;4.10;61.80
9544;DHT22;30418;51.45933468;7.33152330;2024-01-07T13:59:27;4.10;61.20